Skip Navigation Links
NOAA logo - Click to go to the NOAA homepage
NOAA's National Weather Service
Alaska Aviation Weather Unit
  NWS logo - Click to go to the NWS homepage
Left Navbar Graphic     19 AKDT = 03 GMT

   
NOAA is celebrating 200 years of science, service, and stewardship. Visit the NOAA 200th celebration Web site to learn more.
USA.gov is the U.S. Government's official Web portal to all Federal, state and local government Web resources and services.
Facebook
NWS on Facebook

Important Change Regarding the AAWU Web Presence

 

Over the last several months, the AAWU has been working to navigate its webpages to a nationally supported server. Security, as well as other needs, have necessitated the change.  In the process, we have made an effort to enhance the functionality of our website, as well as some of our products. As of June 20, 2017, aawu.arh.noaa.gov will be discontinued. The new AAWU web address is weather.gov/aawu. It is now live and will run in-parallel with the old site until it is discontinued. Please send any feedback or questions regarding the new webpages to nws.ar.aawu.webauthors@noaa.gov.  Thank you for your patience during this time of transition.
AAWU Home :: Display TAF Add Bookmark
SPECI PAIK 242101Z AUTO 10013G21KT 10SM RA BKN013 BKN018 OVC026 05/04
     A2958 RMK AO2=

METAR PAIK 242108Z AUTO 09014G19KT 9SM -RA BKN013 BKN020 OVC030 05/04
     A2958 RMK AO2 SLP057 6//// T00500039 56021=

SPECI PAIK 242201Z AUTO 10014G20KT 10SM -RA BKN015 OVC020 06/04 A2956
     RMK AO2 P0004=

METAR PAIK 242301Z AUTO 11012G19KT 10SM -RA BKN015 OVC020 06/05 A2954
     RMK AO2 SLP045 P0004 T00610050=

SPECI PAIK 242324Z AUTO 11015G19KT 10SM -RA FEW018 SCT025 OVC038 06/05
     A2953 RMK AO2 P0000=

SPECI PAIK 242332Z AUTO 10011G21KT 10SM -RA SCT016 BKN024 OVC038 06/05
     A2953 RMK AO2 P0001=

METAR PAIK 250001Z AUTO 11017G22KT 10SM -RA BKN019 BKN024 OVC041 07/05
     A2952 RMK AO2 SLP036 P0001 6//// T00670050 10067 20044
     58013=

METAR PAIK 250101Z AUTO 11012G19KT 10SM RA BKN015 BKN021 OVC027 07/06
     A2952 RMK AO2 SLP036 P0000 T00670056=

SPECI PAIK 250145Z AUTO 13007KT 10SM -RA FEW016 BKN032 OVC041 06/04
     A2952 RMK AO2 P0005=

METAR PAIK 250201Z AUTO 10007KT 10SM -RA FEW031 BKN046 OVC060 06/04
     A2952 RMK AO2 SLP038 P0005 T00560044=

SPECI PAIK 250247Z AUTO 09005KT 10SM BKN025 BKN036 OVC080 06/06 A2953
     RMK AO2 RAE04 P0000=

METAR PAIK 250301Z AUTO 10005KT 10SM BKN023 BKN038 OVC044 06/06 A2953
     RMK AO2 RAE0204 SLP040 P0000 6//// T00610056 55006=


NOAA's National Weather Service
Alaska Aviation Weather Unit
6930 Sand Lake Road
Anchorage, AK 99502-1845
Disclaimer
Credits
Glossary
Privacy Policy
About Us
Career Opportunities
Contact AAWU Internet Services Site last modified: April, 17th 2012